.
WxDataArchive / Data Records for 2012-05-05
2012-05-04 May 2012 2012-05-06

Data Records for Saturday, 05 May 2012

Time	Temp	Chill	HIndex	Humid	Dewpt	 Wind 	HiWind	WindDir	Rain 	Barom 
-----	----	-----	------	-----	-----	------	------	-------	-----	----- 
00:00	67.8	67.8	67.8	85	63.1	0	2	90	0.00	29.899 
00:05	67.6	67.6	67.6	86	63.3	0	2	90	0.00	29.899 
00:10	67.4	67.4	67.4	87	63.4	0	1	90	0.00	29.899 
00:15	67.4	67.4	67.4	88	63.7	0	3	90	0.00	29.908 
00:20	67.6	67.6	67.6	88	63.9	0	2	90	0.00	29.908 
00:25	67.6	67.6	67.6	88	63.9	0	2	135	0.00	29.908 
00:30	67.6	67.6	67.6	89	64.2	0	3	45	0.00	29.918 
00:35	67.6	67.6	67.6	89	64.2	1	5	90	0.00	29.918 
00:40	67.6	67.6	67.6	88	63.9	2	9	112	0.00	29.918 
00:45	67.6	67.6	67.6	88	63.9	3	8	90	0.00	29.918 
00:50	67.6	67.6	67.6	88	63.9	4	12	90	0.00	29.918 
00:55	67.3	67.3	67.3	87	63.3	3	14	112	0.00	29.918 
01:00	67.1	67.1	67.1	86	62.8	3	10	112	0.00	29.923 
01:05	66.4	66.4	66.4	85	61.7	6	13	90	0.00	29.923 
01:10	66.0	66.0	66.0	85	61.4	4	10	90	0.00	29.923 
01:15	65.5	65.5	65.5	86	61.2	3	12	90	0.00	29.933 
01:20	65.2	65.2	65.2	86	60.9	4	11	112	0.00	29.933 
01:25	64.8	64.8	64.8	86	60.5	3	9	90	0.00	29.933 
01:30	64.5	64.5	64.5	87	60.5	2	5	90	0.00	29.935 
01:35	64.3	64.3	64.3	87	60.3	2	7	112	0.00	29.935 
01:40	64.2	64.2	64.2	88	60.6	2	7	112	0.00	29.935 
01:45	64.2	64.2	64.2	88	60.6	2	5	112	0.00	29.931 
01:50	64.0	64.0	64.0	88	60.4	2	7	90	0.00	29.931 
01:55	63.9	63.9	63.9	88	60.3	2	9	68	0.00	29.931 
02:00	63.7	63.7	63.7	88	60.1	2	6	90	0.00	29.932 
02:05	63.5	63.5	63.5	88	59.9	3	7	90	0.00	29.932 
02:10	63.2	63.2	63.2	88	59.6	2	6	68	0.00	29.932 
02:15	63.1	63.1	63.1	88	59.5	2	7	112	0.00	29.928 
02:20	62.9	62.9	62.9	88	59.3	2	7	112	0.00	29.928 
02:25	62.7	62.7	62.7	89	59.4	2	6	90	0.00	29.928 
02:30	62.6	62.6	62.6	89	59.3	1	10	90	0.00	29.930 
02:35	62.6	62.6	62.6	89	59.3	1	5	90	0.00	29.930 
02:40	62.6	62.6	62.6	89	59.3	3	10	112	0.00	29.930 
02:45	62.6	62.6	62.6	89	59.3	2	7	90	0.00	29.922 
02:50	62.6	62.6	62.6	89	59.3	2	4	68	0.00	29.922 
02:55	62.6	62.6	62.6	89	59.3	2	4	112	0.00	29.922 
03:00	62.6	62.6	62.6	89	59.3	1	5	45	0.00	29.908 
03:05	62.6	62.6	62.6	89	59.3	2	7	112	0.00	29.908 
03:10	62.6	62.6	62.6	89	59.3	3	9	90	0.00	29.908 
03:15	62.6	62.6	62.6	89	59.3	1	4	112	0.00	29.899 
03:20	62.6	62.6	62.6	89	59.3	1	6	112	0.00	29.899 
03:25	62.6	62.6	62.6	89	59.3	1	3	90	0.00	29.899 
03:30	62.4	62.4	62.4	89	59.1	2	6	90	0.00	29.902 
03:35	62.4	62.4	62.4	89	59.1	2	9	90	0.00	29.902 
03:40	62.4	62.4	62.4	89	59.1	2	6	90	0.00	29.902 
03:45	62.3	62.3	62.3	88	58.7	1	3	90	0.00	29.901 
03:50	62.3	62.3	62.3	88	58.7	2	6	90	0.00	29.901 
03:55	62.3	62.3	62.3	88	58.7	2	6	90	0.00	29.901 
04:00	62.1	62.1	62.1	88	58.5	3	7	112	0.00	29.904 
04:05	62.1	62.1	62.1	88	58.5	2	5	68	0.00	29.904 
04:10	62.1	62.1	62.1	88	58.5	2	10	90	0.00	29.904 
04:15	62.1	62.1	62.1	88	58.5	3	7	68	0.00	29.897 
04:20	62.1	62.1	62.1	88	58.5	2	6	90	0.00	29.897 
04:25	62.1	62.1	62.1	88	58.5	1	3	68	0.00	29.897 
04:30	62.1	62.1	62.1	88	58.5	1	4	68	0.00	29.900 
04:35	62.1	62.1	62.1	88	58.5	1	3	68	0.00	29.900 
04:40	62.1	62.1	62.1	88	58.5	1	4	68	0.00	29.900 
04:45	62.0	62.0	62.0	88	58.4	1	3	68	0.00	29.905 
04:50	62.0	62.0	62.0	87	58.1	2	5	68	0.00	29.905 
04:55	62.0	62.0	62.0	87	58.1	2	5	90	0.00	29.905 
05:00	62.0	62.0	62.0	87	58.1	2	6	90	0.00	29.906 
05:05	62.0	62.0	62.0	87	58.1	2	4	112	0.00	29.906 
05:10	62.0	62.0	62.0	87	58.1	1	3	112	0.00	29.906 
05:15	62.0	62.0	62.0	87	58.1	2	7	112	0.00	29.922 
05:20	62.0	62.0	62.0	87	58.1	1	5	90	0.00	29.922 
05:25	62.1	62.1	62.1	87	58.2	1	3	90	0.00	29.922 
05:30	62.1	62.1	62.1	88	58.5	2	9	90	0.00	29.934 
05:35	62.1	62.1	62.1	88	58.5	1	4	90	0.00	29.934 
05:40	62.1	62.1	62.1	88	58.5	0	3	90	0.00	29.934 
05:45	62.1	62.1	62.1	88	58.5	0	0	---	0.00	29.945 
05:50	62.0	62.0	62.0	88	58.4	0	0	---	0.00	29.945 
05:55	62.0	62.0	62.0	88	58.4	0	2	90	0.00	29.945 
06:00	61.8	61.8	61.8	89	58.5	1	5	90	0.00	29.935 
06:05	61.6	61.6	61.6	90	58.6	1	5	90	0.00	29.935 
06:10	61.3	61.3	61.3	90	58.3	2	4	90	0.00	29.935 
06:15	61.2	61.2	61.2	90	58.2	1	5	90	0.00	29.933 
06:20	61.0	61.0	61.0	90	58.0	0	2	90	0.00	29.933 
06:25	60.7	60.7	60.7	89	57.4	1	4	90	0.00	29.933 
06:30	60.5	60.5	60.5	89	57.2	1	9	90	0.00	29.938 
06:35	60.5	60.5	60.5	88	56.9	2	6	90	0.00	29.938 
06:40	60.4	60.4	60.4	88	56.8	1	5	90	0.00	29.938 
06:45	60.4	60.4	60.4	88	56.8	2	6	90	0.00	29.939 
06:50	60.4	60.4	60.4	88	56.8	3	6	90	0.00	29.939 
06:55	60.2	60.2	60.2	88	56.6	2	8	68	0.00	29.939 
07:00	60.1	60.1	60.1	88	56.5	2	7	68	0.00	29.943 
07:05	59.9	59.9	59.9	88	56.3	3	7	90	0.00	29.943 
07:10	59.9	59.9	59.9	88	56.3	2	6	112	0.00	29.943 
07:15	59.9	59.9	59.9	89	56.6	2	6	112	0.00	29.958 
07:20	59.9	59.9	59.9	89	56.6	3	7	90	0.00	29.958 
07:25	59.8	59.8	59.8	89	56.5	3	7	112	0.00	29.958 
07:30	59.6	59.6	59.6	90	56.7	3	10	90	0.00	29.944 
07:35	59.5	59.5	59.5	90	56.6	3	7	90	0.00	29.944 
07:40	59.5	59.5	59.5	90	56.6	2	6	90	0.00	29.944 
07:45	59.6	59.6	59.6	90	56.7	2	5	90	0.00	29.953 
07:50	59.6	59.6	59.6	90	56.7	2	4	112	0.00	29.953 
07:55	59.6	59.6	59.6	89	56.4	2	5	90	0.00	29.953 
08:00	59.6	59.6	59.6	90	56.7	1	4	90	0.00	29.965 
08:05	59.8	59.8	59.8	90	56.9	1	3	90	0.00	29.965 
08:10	59.6	59.6	59.6	89	56.4	0	3	90	0.00	29.965 
08:15	59.5	59.5	59.5	89	56.3	1	3	90	0.00	29.973 
08:20	59.5	59.5	59.5	89	56.3	1	5	90	0.00	29.973 
08:25	59.5	59.5	59.5	90	56.6	1	3	90	0.00	29.973 
08:30	59.3	59.3	59.3	90	56.4	1	3	90	0.00	29.981 
08:35	59.3	59.3	59.3	91	56.7	0	2	90	0.00	29.981 
08:40	59.5	59.5	59.5	91	56.9	0	3	90	0.00	29.981 
08:45	59.5	59.5	59.5	91	56.9	1	3	90	0.00	29.991 
08:50	59.3	59.3	59.3	91	56.7	1	4	112	0.00	29.991 
08:55	59.2	59.2	59.2	91	56.6	0	2	112	0.00	29.991 
09:00	59.2	59.2	59.2	91	56.6	1	4	112	0.00	29.995 
09:05	59.2	59.2	59.2	91	56.6	1	4	90	0.00	29.995 
09:10	59.3	59.3	59.3	91	56.7	1	3	90	0.00	29.995 
09:15	59.3	59.3	59.3	91	56.7	0	2	90	0.00	30.003 
09:20	59.2	59.2	59.2	91	56.6	1	3	90	0.00	30.003 
09:25	59.2	59.2	59.2	91	56.6	0	2	90	0.00	30.003 
09:30	59.2	59.2	59.2	90	56.3	1	4	90	0.00	29.997 
09:35	59.2	59.2	59.2	90	56.3	2	5	90	0.00	29.997 
09:40	59.3	59.3	59.3	90	56.4	1	4	112	0.00	29.997 
09:45	59.5	59.5	59.5	90	56.6	2	5	112	0.00	29.991 
09:50	59.5	59.5	59.5	89	56.3	2	6	112	0.00	29.991 
09:55	59.6	59.6	59.6	90	56.7	1	7	90	0.00	29.991 
10:00	59.8	59.8	59.8	89	56.5	2	5	90	0.00	29.990 
10:05	60.1	60.1	60.1	89	56.8	1	5	90	0.00	29.990 
10:10	60.2	60.2	60.2	89	56.9	1	3	112	0.00	29.990 
10:15	60.4	60.4	60.4	88	56.8	0	2	112	0.00	29.997 
10:20	60.4	60.4	60.4	88	56.8	0	2	112	0.00	29.997 
10:25	60.4	60.4	60.4	88	56.8	1	4	112	0.00	29.997 
10:30	60.4	60.4	60.4	88	56.8	2	6	112	0.00	29.985 
10:35	60.5	60.5	60.5	88	56.9	2	9	112	0.00	29.985 
10:40	60.7	60.7	60.7	88	57.1	2	5	90	0.00	29.985 
10:45	61.2	61.2	61.2	88	57.6	1	5	90	0.00	29.982 
10:50	61.6	61.6	61.6	86	57.4	2	5	90	0.00	29.982 
10:55	62.1	62.1	62.1	86	57.9	1	3	90	0.00	29.982 
11:00	62.4	62.4	62.4	84	57.5	2	6	90	0.00	29.982 
11:05	62.7	62.7	62.7	83	57.5	2	6	90	0.00	29.982 
11:10	63.4	63.4	63.4	83	58.1	1	4	112	0.00	29.982 
11:15	64.0	64.0	64.0	82	58.4	1	5	112	0.00	29.991 
11:20	64.3	64.3	64.3	80	58.0	2	5	112	0.00	29.991 
11:25	64.5	64.5	64.5	79	57.8	3	7	90	0.00	29.991 
11:30	64.8	64.8	64.8	79	58.1	2	6	135	0.00	29.991 
11:35	65.2	65.2	65.2	78	58.2	2	5	90	0.00	29.991 
11:40	65.8	65.8	65.8	78	58.7	1	4	90	0.00	29.991 
11:45	66.6	66.6	66.6	78	59.5	2	4	90	0.00	29.992 
11:50	67.3	67.3	67.3	77	59.8	1	4	90	0.00	29.992 
11:55	67.3	67.3	67.3	75	59.1	3	6	90	0.00	29.992 
12:00	67.9	67.9	67.9	76	60.0	1	3	90	0.00	29.987 
12:05	68.4	68.4	68.4	74	59.8	1	4	90	0.00	29.987 
12:10	68.6	68.6	68.6	74	60.0	1	5	90	0.00	29.987 
12:15	68.8	68.8	68.8	73	59.8	2	6	90	0.00	29.985 
12:20	68.8	68.8	68.8	73	59.8	2	6	90	0.00	29.985 
12:25	68.9	68.9	68.9	73	59.9	1	6	90	0.00	29.985 
12:30	69.1	69.1	69.1	73	60.1	1	4	90	0.00	29.983 
12:35	69.1	69.1	69.1	73	60.1	1	4	90	0.00	29.983 
12:40	69.3	69.3	69.3	72	59.9	1	4	135	0.00	29.983 
12:45	69.4	69.4	69.4	73	60.4	1	3	135	0.00	29.980 
12:50	69.4	69.4	69.4	73	60.4	2	6	112	0.00	29.980 
12:55	69.6	69.6	69.6	73	60.6	1	9	90	0.00	29.980 
13:00	69.8	69.8	69.8	72	60.4	2	5	90	0.00	29.978 
13:05	70.1	70.1	70.1	72	60.6	1	4	112	0.00	29.978 
13:10	70.8	70.8	70.8	72	61.3	1	3	90	0.00	29.978 
13:15	70.9	70.9	70.9	69	60.2	2	11	90	0.00	29.979 
13:20	71.5	71.5	71.5	69	60.8	2	9	112	0.00	29.979 
13:25	71.1	71.1	71.1	69	60.4	1	6	90	0.00	29.979 
13:30	70.9	70.9	70.9	69	60.2	1	5	90	0.00	29.975 
13:35	71.3	71.3	71.3	70	61.0	2	5	112	0.00	29.975 
13:40	71.5	71.5	71.5	71	61.6	1	4	90	0.00	29.975 
13:45	71.6	71.6	71.6	69	60.9	2	4	112	0.00	29.973 
13:50	71.8	71.8	71.8	69	61.1	2	7	112	0.00	29.973 
13:55	71.8	71.8	71.8	69	61.1	3	10	68	0.00	29.973 
14:00	71.6	71.6	71.6	67	60.0	2	11	68	0.00	29.973 
14:05	71.6	71.6	71.6	68	60.5	4	11	90	0.00	29.973 
14:10	71.6	71.6	71.6	65	59.2	4	11	112	0.00	29.973 
14:15	71.5	71.5	71.5	67	60.0	4	10	90	0.00	29.976 
14:20	72.0	72.0	72.0	68	60.8	3	5	112	0.00	29.976 
14:25	72.0	72.0	72.0	64	59.1	3	9	90	0.00	29.976 
14:30	71.8	71.8	71.8	65	59.4	4	13	90	0.00	29.976 
14:35	71.8	71.8	71.8	66	59.8	3	11	90	0.00	29.976 
14:40	71.6	71.6	71.6	65	59.2	3	10	112	0.00	29.976 
14:45	71.5	71.5	71.5	65	59.1	3	9	90	0.00	29.975 
14:50	71.8	71.8	71.8	67	60.2	3	11	90	0.00	29.975 
14:55	72.0	72.0	72.0	65	59.6	3	11	90	0.00	29.975 
15:00	71.8	71.8	71.8	65	59.4	3	6	90	0.00	29.973 
15:05	72.0	72.0	72.0	65	59.6	3	7	112	0.00	29.973 
15:10	72.0	72.0	72.0	64	59.1	3	10	90	0.00	29.973 
15:15	72.1	72.1	72.1	64	59.2	3	7	90	0.00	29.972 
15:20	72.1	72.1	72.1	65	59.7	4	10	90	0.00	29.972 
15:25	72.1	72.1	72.1	64	59.2	3	6	90	0.00	29.972 
15:30	72.1	72.1	72.1	64	59.2	2	6	90	0.00	29.973 
15:35	72.3	72.3	72.3	64	59.4	2	6	90	0.00	29.973 
15:40	72.5	72.5	72.5	63	59.2	3	7	90	0.00	29.973 
15:45	72.3	72.3	72.3	62	58.5	4	11	90	0.00	29.976 
15:50	72.5	72.5	72.5	61	58.3	2	6	112	0.00	29.976 
15:55	72.5	72.5	72.5	61	58.3	2	7	112	0.00	29.976 
16:00	72.7	72.7	72.7	63	59.4	2	6	90	0.00	29.979 
16:05	72.7	72.7	72.7	61	58.5	3	6	90	0.00	29.979 
16:10	72.3	72.3	72.3	62	58.5	3	7	112	0.00	29.979 
16:15	72.1	72.1	72.1	61	57.9	3	10	90	0.00	29.987 
16:20	72.0	72.0	72.0	63	58.7	1	5	90	0.00	29.987 
16:25	71.6	71.6	71.6	63	58.3	2	4	90	0.00	29.987 
16:30	71.3	71.3	71.3	63	58.0	4	7	90	0.00	29.992 
16:35	71.1	71.1	71.1	63	57.9	3	6	90	0.00	29.992 
16:40	71.1	71.1	71.1	63	57.9	3	6	90	0.00	29.992 
16:45	70.9	70.9	70.9	63	57.7	1	6	90	0.00	29.993 
16:50	70.9	70.9	70.9	63	57.7	2	6	112	0.00	29.993 
16:55	70.9	70.9	70.9	63	57.7	2	5	90	0.00	29.993 
17:00	71.1	71.1	71.1	62	57.4	2	6	90	0.00	29.993 
17:05	71.1	71.1	71.1	61	57.0	2	5	112	0.00	29.993 
17:10	70.9	70.9	70.9	63	57.7	2	6	90	0.00	29.993 
17:15	71.1	71.1	71.1	63	57.9	2	8	112	0.00	29.988 
17:20	71.5	71.5	71.5	61	57.3	1	4	112	0.00	29.988 
17:25	71.6	71.6	71.6	61	57.4	2	6	112	0.00	29.988 
17:30	71.6	71.6	71.6	62	57.9	2	5	112	0.00	29.982 
17:35	71.5	71.5	71.5	62	57.8	2	6	90	0.00	29.982 
17:40	71.5	71.5	71.5	62	57.8	1	4	90	0.00	29.982 
17:45	71.5	71.5	71.5	60	56.9	2	6	90	0.00	29.981 
17:50	71.6	71.6	71.6	62	57.9	1	3	90	0.00	29.981 
17:55	71.6	71.6	71.6	60	57.0	2	5	112	0.00	29.981 
18:00	71.6	71.6	71.6	63	58.3	2	4	112	0.00	29.976 
18:05	71.5	71.5	71.5	62	57.8	2	4	112	0.00	29.976 
18:10	71.3	71.3	71.3	62	57.6	0	3	112	0.00	29.976 
18:15	71.3	71.3	71.3	62	57.6	1	4	90	0.00	29.980 
18:20	71.3	71.3	71.3	62	57.6	2	5	90	0.00	29.980 
18:25	71.3	71.3	71.3	61	57.1	2	6	90	0.00	29.980 
18:30	71.1	71.1	71.1	62	57.4	2	4	68	0.00	29.988 
18:35	70.8	70.8	70.8	61	56.7	2	4	112	0.00	29.988 
18:40	70.8	70.8	70.8	62	57.1	2	4	112	0.00	29.988 
18:45	70.6	70.6	70.6	63	57.4	2	6	135	0.00	29.991 
18:50	70.4	70.4	70.4	62	56.7	2	4	90	0.00	29.991 
18:55	70.3	70.3	70.3	63	57.1	1	5	90	0.00	29.991 
19:00	70.3	70.3	70.3	63	57.1	2	5	90	0.00	29.994 
19:05	70.3	70.3	70.3	62	56.7	2	4	90	0.00	29.994 
19:10	70.1	70.1	70.1	63	56.9	2	4	90	0.00	29.994 
19:15	69.9	69.9	69.9	62	56.3	2	5	90	0.00	29.996 
19:20	69.9	69.9	69.9	62	56.3	2	5	90	0.00	29.996 
19:25	69.8	69.8	69.8	63	56.6	2	5	90	0.00	29.996 
19:30	69.6	69.6	69.6	62	56.0	2	5	90	0.00	30.000 
19:35	69.3	69.3	69.3	63	56.2	2	5	68	0.00	30.000 
19:40	69.1	69.1	69.1	63	56.0	2	4	68	0.00	30.000 
19:45	68.8	68.8	68.8	64	56.1	1	4	68	0.00	30.011 
19:50	68.6	68.6	68.6	64	55.9	1	5	68	0.00	30.011 
19:55	68.4	68.4	68.4	65	56.2	1	3	90	0.00	30.011 
20:00	68.3	68.3	68.3	65	56.1	1	3	90	0.00	30.011 
20:05	68.3	68.3	68.3	65	56.1	1	3	112	0.00	30.011 
20:10	68.1	68.1	68.1	65	55.9	2	4	112	0.00	30.011 
20:15	67.8	67.8	67.8	65	55.6	2	6	90	0.00	30.013 
20:20	67.6	67.6	67.6	65	55.4	1	4	90	0.00	30.013 
20:25	67.4	67.4	67.4	66	55.6	1	3	90	0.00	30.013 
20:30	67.3	67.3	67.3	66	55.5	0	1	90	0.00	30.018 
20:35	67.1	67.1	67.1	67	55.8	0	1	90	0.00	30.018 
20:40	66.8	66.8	66.8	67	55.5	0	1	90	0.00	30.018 
20:45	66.6	66.6	66.6	68	55.7	0	3	90	0.00	30.025 
20:50	66.3	66.3	66.3	68	55.4	1	4	90	0.00	30.025 
20:55	66.1	66.1	66.1	69	55.6	0	2	90	0.00	30.025 
21:00	65.8	65.8	65.8	69	55.3	0	1	90	0.00	30.029 
21:05	65.6	65.6	65.6	69	55.1	0	1	90	0.00	30.029 
21:10	65.3	65.3	65.3	70	55.3	0	1	90	0.00	30.029 
21:15	65.2	65.2	65.2	70	55.2	0	1	90	0.00	30.031 
21:20	64.8	64.8	64.8	71	55.2	0	0	---	0.00	30.031 
21:25	64.7	64.7	64.7	72	55.5	0	0	---	0.00	30.031 
21:30	64.3	64.3	64.3	73	55.5	0	1	90	0.00	30.034 
21:35	64.0	64.0	64.0	73	55.2	0	2	90	0.00	30.034 
21:40	64.0	64.0	64.0	73	55.2	1	3	90	0.00	30.034 
21:45	63.9	63.9	63.9	72	54.7	1	4	90	0.00	30.034 
21:50	63.9	63.9	63.9	73	55.1	1	2	90	0.00	30.034 
21:55	63.5	63.5	63.5	73	54.7	0	2	90	0.00	30.034 
22:00	63.4	63.4	63.4	74	55.0	0	2	90	0.00	30.046 
22:05	63.1	63.1	63.1	75	55.0	1	3	90	0.00	30.046 
22:10	62.9	62.9	62.9	76	55.2	1	3	90	0.00	30.046 
22:15	62.7	62.7	62.7	77	55.4	1	3	90	0.00	30.047 
22:20	62.4	62.4	62.4	77	55.1	1	2	90	0.00	30.047 
22:25	62.3	62.3	62.3	77	55.0	1	4	90	0.00	30.047 
22:30	62.1	62.1	62.1	77	54.8	1	2	90	0.00	30.041 
22:35	62.0	62.0	62.0	77	54.7	1	3	90	0.00	30.041 
22:40	61.8	61.8	61.8	77	54.5	1	5	90	0.00	30.041 
22:45	61.6	61.6	61.6	78	54.7	1	4	112	0.00	30.044 
22:50	61.5	61.5	61.5	78	54.6	1	2	112	0.00	30.044 
22:55	61.3	61.3	61.3	78	54.4	1	3	112	0.00	30.044 
23:00	61.2	61.2	61.2	78	54.3	1	2	112	0.00	30.043 
23:05	61.0	61.0	61.0	78	54.1	0	1	112	0.00	30.043 
23:10	60.9	60.9	60.9	78	54.0	0	2	112	0.00	30.043 
23:15	60.7	60.7	60.7	78	53.8	0	2	112	0.00	30.041 
23:20	60.5	60.5	60.5	78	53.6	0	1	112	0.00	30.041 
23:25	60.4	60.4	60.4	78	53.5	0	0	---	0.00	30.041 
23:30	60.2	60.2	60.2	78	53.3	0	0	---	0.00	30.043 
23:35	59.9	59.9	59.9	79	53.4	0	1	112	0.00	30.043 
23:40	59.9	59.9	59.9	79	53.4	0	1	112	0.00	30.043 
23:45	59.8	59.8	59.8	78	52.9	0	1	112	0.00	30.040 
23:50	59.8	59.8	59.8	78	52.9	0	2	112	0.00	30.040 
23:55	59.8	59.8	59.8	78	52.9	0	2	112	0.00	30.040 

CoCoRaHS
IN-AL-39
A2 Web Hosting
Creative Commons License
GoDaddy
search engine by freefind advanced

loaded 2018-11-19 10:19:33 • last modified 2010-11-18 10:43:29
Privacy PolicyDisclaimer
• wx.awcolley.com is powered by PmWiki v.2002016 •
• all content (unless otherwise noted) © 2018 A W Colley